sensor_id;sensor_type;location;lat;lon;timestamp;P1;durP1;ratioP1;P2;durP2;ratioP2
38083;SDS011;23894;51.466;7.444;2023-01-24T00:01:57;20.10;;;14.07;;
38083;SDS011;23894;51.466;7.444;2023-01-24T00:03:58;17.60;;;12.85;;
38083;SDS011;23894;51.466;7.444;2023-01-24T00:05:59;18.60;;;13.60;;
38083;SDS011;23894;51.466;7.444;2023-01-24T00:08:00;18.17;;;12.90;;
38083;SDS011;23894;51.466;7.444;2023-01-24T00:10:01;18.83;;;14.18;;
38083;SDS011;23894;51.466;7.444;2023-01-24T00:12:03;17.80;;;13.48;;
38083;SDS011;23894;51.466;7.444;2023-01-24T00:14:04;19.50;;;13.68;;
38083;SDS011;23894;51.466;7.444;2023-01-24T00:16:09;18.58;;;14.25;;
38083;SDS011;23894;51.466;7.444;2023-01-24T00:18:11;16.83;;;12.05;;
38083;SDS011;23894;51.466;7.444;2023-01-24T00:20:14;16.75;;;12.18;;
38083;SDS011;23894;51.466;7.444;2023-01-24T00:24:16;15.00;;;11.73;;
38083;SDS011;23894;51.466;7.444;2023-01-24T00:26:17;16.90;;;11.48;;
38083;SDS011;23894;51.466;7.444;2023-01-24T00:28:18;15.23;;;11.35;;
38083;SDS011;23894;51.466;7.444;2023-01-24T00:30:19;16.13;;;12.18;;
38083;SDS011;23894;51.466;7.444;2023-01-24T00:32:22;16.48;;;11.15;;
38083;SDS011;23894;51.466;7.444;2023-01-24T00:34:23;15.10;;;11.02;;
38083;SDS011;23894;51.466;7.444;2023-01-24T00:36:24;16.27;;;11.50;;
38083;SDS011;23894;51.466;7.444;2023-01-24T00:38:25;14.50;;;10.57;;
38083;SDS011;23894;51.466;7.444;2023-01-24T00:40:26;14.35;;;10.40;;
38083;SDS011;23894;51.466;7.444;2023-01-24T00:42:27;14.93;;;10.60;;
38083;SDS011;23894;51.466;7.444;2023-01-24T00:44:28;14.07;;;10.00;;
38083;SDS011;23894;51.466;7.444;2023-01-24T00:46:29;13.23;;;9.98;;
38083;SDS011;23894;51.466;7.444;2023-01-24T00:48:30;13.48;;;9.70;;
38083;SDS011;23894;51.466;7.444;2023-01-24T00:50:31;12.40;;;9.70;;
38083;SDS011;23894;51.466;7.444;2023-01-24T00:54:34;11.77;;;8.38;;
38083;SDS011;23894;51.466;7.444;2023-01-24T00:56:35;12.00;;;8.95;;
38083;SDS011;23894;51.466;7.444;2023-01-24T00:58:36;12.85;;;9.68;;
38083;SDS011;23894;51.466;7.444;2023-01-24T01:00:37;11.75;;;8.93;;
38083;SDS011;23894;51.466;7.444;2023-01-24T01:02:39;12.18;;;9.32;;
38083;SDS011;23894;51.466;7.444;2023-01-24T01:04:40;12.40;;;8.82;;
38083;SDS011;23894;51.466;7.444;2023-01-24T01:06:41;11.20;;;8.55;;
38083;SDS011;23894;51.466;7.444;2023-01-24T01:08:42;13.13;;;9.57;;
38083;SDS011;23894;51.466;7.444;2023-01-24T01:10:44;12.55;;;8.57;;
38083;SDS011;23894;51.466;7.444;2023-01-24T01:12:47;12.65;;;9.10;;
38083;SDS011;23894;51.466;7.444;2023-01-24T01:14:48;13.73;;;9.60;;
38083;SDS011;23894;51.466;7.444;2023-01-24T01:16:49;13.00;;;9.40;;
38083;SDS011;23894;51.466;7.444;2023-01-24T01:18:53;13.13;;;9.73;;
38083;SDS011;23894;51.466;7.444;2023-01-24T01:20:54;12.65;;;9.15;;
38083;SDS011;23894;51.466;7.444;2023-01-24T01:22:55;11.95;;;9.18;;
38083;SDS011;23894;51.466;7.444;2023-01-24T01:24:56;13.63;;;9.73;;
38083;SDS011;23894;51.466;7.444;2023-01-24T01:26:57;11.40;;;8.40;;
38083;SDS011;23894;51.466;7.444;2023-01-24T01:29:00;11.35;;;8.73;;
38083;SDS011;23894;51.466;7.444;2023-01-24T01:31:01;10.73;;;7.72;;
38083;SDS011;23894;51.466;7.444;2023-01-24T01:33:02;10.63;;;7.53;;
38083;SDS011;23894;51.466;7.444;2023-01-24T01:35:03;10.25;;;7.97;;
38083;SDS011;23894;51.466;7.444;2023-01-24T01:37:04;11.20;;;8.55;;
38083;SDS011;23894;51.466;7.444;2023-01-24T01:39:05;10.13;;;8.10;;
38083;SDS011;23894;51.466;7.444;2023-01-24T01:41:06;13.40;;;9.05;;
38083;SDS011;23894;51.466;7.444;2023-01-24T01:43:41;12.10;;;8.77;;
38083;SDS011;23894;51.466;7.444;2023-01-24T01:45:45;12.82;;;9.30;;
38083;SDS011;23894;51.466;7.444;2023-01-24T01:47:46;12.40;;;9.00;;
38083;SDS011;23894;51.466;7.444;2023-01-24T01:49:52;12.38;;;9.32;;
38083;SDS011;23894;51.466;7.444;2023-01-24T01:52:02;11.55;;;9.15;;
38083;SDS011;23894;51.466;7.444;2023-01-24T01:54:06;12.27;;;9.00;;
38083;SDS011;23894;51.466;7.444;2023-01-24T01:56:15;11.75;;;8.95;;
38083;SDS011;23894;51.466;7.444;2023-01-24T01:58:21;11.68;;;8.90;;
38083;SDS011;23894;51.466;7.444;2023-01-24T02:00:22;11.95;;;9.13;;
38083;SDS011;23894;51.466;7.444;2023-01-24T02:02:24;11.10;;;8.90;;
38083;SDS011;23894;51.466;7.444;2023-01-24T02:04:27;12.43;;;8.93;;
38083;SDS011;23894;51.466;7.444;2023-01-24T02:08:49;11.27;;;8.55;;
38083;SDS011;23894;51.466;7.444;2023-01-24T02:10:52;12.95;;;9.15;;
38083;SDS011;23894;51.466;7.444;2023-01-24T02:13:12;11.85;;;8.98;;
38083;SDS011;23894;51.466;7.444;2023-01-24T02:15:15;11.82;;;8.90;;
38083;SDS011;23894;51.466;7.444;2023-01-24T02:21:56;13.02;;;10.20;;
38083;SDS011;23894;51.466;7.444;2023-01-24T02:24:10;11.98;;;8.52;;
38083;SDS011;23894;51.466;7.444;2023-01-24T02:26:23;12.15;;;9.10;;
38083;SDS011;23894;51.466;7.444;2023-01-24T02:28:25;12.80;;;9.00;;
38083;SDS011;23894;51.466;7.444;2023-01-24T02:30:26;12.43;;;8.65;;
38083;SDS011;23894;51.466;7.444;2023-01-24T02:32:27;13.52;;;9.32;;
38083;SDS011;23894;51.466;7.444;2023-01-24T02:34:29;10.38;;;8.15;;
38083;SDS011;23894;51.466;7.444;2023-01-24T02:36:32;14.18;;;9.32;;
38083;SDS011;23894;51.466;7.444;2023-01-24T02:38:33;12.57;;;8.73;;
38083;SDS011;23894;51.466;7.444;2023-01-24T02:42:36;12.32;;;9.30;;
38083;SDS011;23894;51.466;7.444;2023-01-24T02:44:46;11.75;;;8.90;;
38083;SDS011;23894;51.466;7.444;2023-01-24T02:46:49;11.93;;;9.30;;
38083;SDS011;23894;51.466;7.444;2023-01-24T02:48:52;11.65;;;8.80;;
38083;SDS011;23894;51.466;7.444;2023-01-24T02:50:53;13.52;;;9.45;;
38083;SDS011;23894;51.466;7.444;2023-01-24T02:53:12;13.32;;;8.95;;
38083;SDS011;23894;51.466;7.444;2023-01-24T02:55:29;12.45;;;9.45;;
38083;SDS011;23894;51.466;7.444;2023-01-24T02:57:30;12.10;;;8.80;;
38083;SDS011;23894;51.466;7.444;2023-01-24T02:59:49;12.43;;;8.82;;
38083;SDS011;23894;51.466;7.444;2023-01-24T03:01:51;14.10;;;9.38;;
38083;SDS011;23894;51.466;7.444;2023-01-24T03:03:52;12.52;;;9.07;;
38083;SDS011;23894;51.466;7.444;2023-01-24T03:05:54;13.38;;;9.02;;
38083;SDS011;23894;51.466;7.444;2023-01-24T03:07:58;11.98;;;8.95;;
38083;SDS011;23894;51.466;7.444;2023-01-24T03:09:59;13.05;;;8.98;;
38083;SDS011;23894;51.466;7.444;2023-01-24T03:12:01;12.35;;;8.75;;
38083;SDS011;23894;51.466;7.444;2023-01-24T03:14:21;11.63;;;8.55;;
38083;SDS011;23894;51.466;7.444;2023-01-24T03:16:41;11.65;;;8.63;;
38083;SDS011;23894;51.466;7.444;2023-01-24T03:19:01;12.18;;;8.55;;
38083;SDS011;23894;51.466;7.444;2023-01-24T03:21:20;11.13;;;8.35;;
38083;SDS011;23894;51.466;7.444;2023-01-24T03:23:40;12.32;;;8.85;;
38083;SDS011;23894;51.466;7.444;2023-01-24T03:26:00;12.63;;;8.57;;
38083;SDS011;23894;51.466;7.444;2023-01-24T03:28:20;13.63;;;8.95;;
38083;SDS011;23894;51.466;7.444;2023-01-24T03:30:39;11.90;;;8.70;;
38083;SDS011;23894;51.466;7.444;2023-01-24T03:33:00;13.32;;;10.02;;
38083;SDS011;23894;51.466;7.444;2023-01-24T03:35:19;12.82;;;8.90;;
38083;SDS011;23894;51.466;7.444;2023-01-24T03:37:22;11.32;;;8.57;;
38083;SDS011;23894;51.466;7.444;2023-01-24T03:39:42;11.88;;;9.00;;
38083;SDS011;23894;51.466;7.444;2023-01-24T03:41:59;11.98;;;8.93;;
38083;SDS011;23894;51.466;7.444;2023-01-24T03:44:00;13.20;;;9.50;;
38083;SDS011;23894;51.466;7.444;2023-01-24T03:46:01;12.93;;;9.18;;
38083;SDS011;23894;51.466;7.444;2023-01-24T03:48:03;12.32;;;9.18;;
38083;SDS011;23894;51.466;7.444;2023-01-24T03:50:09;13.32;;;9.50;;
38083;SDS011;23894;51.466;7.444;2023-01-24T03:52:29;12.43;;;9.50;;
38083;SDS011;23894;51.466;7.444;2023-01-24T03:54:31;14.35;;;9.55;;
38083;SDS011;23894;51.466;7.444;2023-01-24T03:56:32;13.07;;;8.93;;
38083;SDS011;23894;51.466;7.444;2023-01-24T03:58:33;13.30;;;9.60;;
38083;SDS011;23894;51.466;7.444;2023-01-24T04:00:34;12.32;;;10.00;;
38083;SDS011;23894;51.466;7.444;2023-01-24T04:02:35;13.35;;;10.13;;
38083;SDS011;23894;51.466;7.444;2023-01-24T04:04:36;12.77;;;9.88;;
38083;SDS011;23894;51.466;7.444;2023-01-24T04:06:56;14.65;;;10.75;;
38083;SDS011;23894;51.466;7.444;2023-01-24T04:08:57;14.15;;;10.85;;
38083;SDS011;23894;51.466;7.444;2023-01-24T04:10:58;14.68;;;11.02;;
38083;SDS011;23894;51.466;7.444;2023-01-24T04:13:00;14.90;;;10.77;;
38083;SDS011;23894;51.466;7.444;2023-01-24T04:17:02;13.07;;;10.20;;
38083;SDS011;23894;51.466;7.444;2023-01-24T04:19:03;14.25;;;11.30;;
38083;SDS011;23894;51.466;7.444;2023-01-24T04:21:04;13.85;;;10.65;;
38083;SDS011;23894;51.466;7.444;2023-01-24T04:23:06;16.00;;;11.00;;
38083;SDS011;23894;51.466;7.444;2023-01-24T04:25:09;14.80;;;10.38;;
38083;SDS011;23894;51.466;7.444;2023-01-24T04:27:10;14.60;;;11.23;;
38083;SDS011;23894;51.466;7.444;2023-01-24T04:31:12;14.15;;;10.60;;
38083;SDS011;23894;51.466;7.444;2023-01-24T04:33:13;13.65;;;10.77;;
38083;SDS011;23894;51.466;7.444;2023-01-24T04:35:16;15.77;;;12.10;;
38083;SDS011;23894;51.466;7.444;2023-01-24T04:37:17;14.45;;;10.95;;
38083;SDS011;23894;51.466;7.444;2023-01-24T04:39:18;16.13;;;11.60;;
38083;SDS011;23894;51.466;7.444;2023-01-24T04:41:19;13.68;;;10.60;;
38083;SDS011;23894;51.466;7.444;2023-01-24T04:43:20;15.38;;;11.20;;
38083;SDS011;23894;51.466;7.444;2023-01-24T04:45:21;14.02;;;11.52;;
38083;SDS011;23894;51.466;7.444;2023-01-24T04:47:22;13.65;;;11.27;;
38083;SDS011;23894;51.466;7.444;2023-01-24T04:49:23;13.95;;;10.88;;
38083;SDS011;23894;51.466;7.444;2023-01-24T04:51:24;15.02;;;11.30;;
38083;SDS011;23894;51.466;7.444;2023-01-24T04:53:27;14.10;;;11.32;;
38083;SDS011;23894;51.466;7.444;2023-01-24T04:55:29;14.70;;;11.77;;
38083;SDS011;23894;51.466;7.444;2023-01-24T04:57:30;15.45;;;11.52;;
38083;SDS011;23894;51.466;7.444;2023-01-24T04:59:31;18.08;;;11.95;;
38083;SDS011;23894;51.466;7.444;2023-01-24T05:01:32;14.27;;;10.88;;
38083;SDS011;23894;51.466;7.444;2023-01-24T05:03:33;15.50;;;12.27;;
38083;SDS011;23894;51.466;7.444;2023-01-24T05:05:34;14.32;;;11.63;;
38083;SDS011;23894;51.466;7.444;2023-01-24T05:07:35;14.70;;;10.82;;
38083;SDS011;23894;51.466;7.444;2023-01-24T05:09:37;16.45;;;12.20;;
38083;SDS011;23894;51.466;7.444;2023-01-24T05:11:38;14.93;;;11.00;;
38083;SDS011;23894;51.466;7.444;2023-01-24T05:13:39;16.58;;;11.82;;
38083;SDS011;23894;51.466;7.444;2023-01-24T05:15:47;13.45;;;10.90;;
38083;SDS011;23894;51.466;7.444;2023-01-24T05:17:49;16.00;;;12.13;;
38083;SDS011;23894;51.466;7.444;2023-01-24T05:19:50;14.30;;;11.55;;
38083;SDS011;23894;51.466;7.444;2023-01-24T05:21:51;15.27;;;11.52;;
38083;SDS011;23894;51.466;7.444;2023-01-24T05:23:52;14.98;;;12.05;;
38083;SDS011;23894;51.466;7.444;2023-01-24T05:25:57;15.45;;;11.95;;
38083;SDS011;23894;51.466;7.444;2023-01-24T05:27:58;16.58;;;11.88;;
38083;SDS011;23894;51.466;7.444;2023-01-24T05:29:59;14.52;;;11.48;;
38083;SDS011;23894;51.466;7.444;2023-01-24T05:32:00;14.98;;;11.18;;
38083;SDS011;23894;51.466;7.444;2023-01-24T05:34:01;13.32;;;11.13;;
38083;SDS011;23894;51.466;7.444;2023-01-24T05:36:06;16.73;;;11.50;;
38083;SDS011;23894;51.466;7.444;2023-01-24T05:38:07;14.45;;;11.55;;
38083;SDS011;23894;51.466;7.444;2023-01-24T05:40:09;15.00;;;11.77;;
38083;SDS011;23894;51.466;7.444;2023-01-24T05:42:10;15.55;;;12.50;;
38083;SDS011;23894;51.466;7.444;2023-01-24T05:44:11;15.38;;;12.10;;
38083;SDS011;23894;51.466;7.444;2023-01-24T05:46:13;15.27;;;12.32;;
38083;SDS011;23894;51.466;7.444;2023-01-24T05:48:14;15.63;;;11.80;;
38083;SDS011;23894;51.466;7.444;2023-01-24T05:50:15;15.27;;;12.20;;
38083;SDS011;23894;51.466;7.444;2023-01-24T05:52:16;16.45;;;12.52;;
38083;SDS011;23894;51.466;7.444;2023-01-24T05:54:21;14.90;;;12.23;;
38083;SDS011;23894;51.466;7.444;2023-01-24T05:56:22;17.30;;;13.20;;
38083;SDS011;23894;51.466;7.444;2023-01-24T05:58:23;16.15;;;12.70;;
38083;SDS011;23894;51.466;7.444;2023-01-24T06:00:25;17.38;;;12.98;;
38083;SDS011;23894;51.466;7.444;2023-01-24T06:02:28;17.08;;;12.65;;
38083;SDS011;23894;51.466;7.444;2023-01-24T06:04:30;16.27;;;12.73;;
38083;SDS011;23894;51.466;7.444;2023-01-24T06:06:31;16.13;;;12.75;;
38083;SDS011;23894;51.466;7.444;2023-01-24T06:08:32;13.70;;;11.43;;
38083;SDS011;23894;51.466;7.444;2023-01-24T06:10:33;16.77;;;13.18;;
38083;SDS011;23894;51.466;7.444;2023-01-24T06:12:34;15.82;;;12.88;;
38083;SDS011;23894;51.466;7.444;2023-01-24T06:14:35;19.80;;;12.43;;
38083;SDS011;23894;51.466;7.444;2023-01-24T06:16:36;15.88;;;12.32;;
38083;SDS011;23894;51.466;7.444;2023-01-24T06:18:39;17.33;;;12.43;;
38083;SDS011;23894;51.466;7.444;2023-01-24T06:20:40;15.93;;;12.88;;
38083;SDS011;23894;51.466;7.444;2023-01-24T06:24:42;15.75;;;12.30;;
38083;SDS011;23894;51.466;7.444;2023-01-24T06:28:44;16.83;;;12.45;;
38083;SDS011;23894;51.466;7.444;2023-01-24T06:30:47;15.63;;;12.60;;
38083;SDS011;23894;51.466;7.444;2023-01-24T06:33:10;15.70;;;12.45;;
38083;SDS011;23894;51.466;7.444;2023-01-24T06:35:25;16.23;;;12.45;;
38083;SDS011;23894;51.466;7.444;2023-01-24T06:37:36;15.73;;;12.55;;
38083;SDS011;23894;51.466;7.444;2023-01-24T06:39:38;17.02;;;12.73;;
38083;SDS011;23894;51.466;7.444;2023-01-24T06:43:40;15.23;;;11.95;;
38083;SDS011;23894;51.466;7.444;2023-01-24T06:47:43;14.77;;;11.10;;
38083;SDS011;23894;51.466;7.444;2023-01-24T06:49:44;16.48;;;12.50;;
38083;SDS011;23894;51.466;7.444;2023-01-24T06:51:48;16.70;;;13.10;;
38083;SDS011;23894;51.466;7.444;2023-01-24T06:53:50;16.85;;;13.05;;
38083;SDS011;23894;51.466;7.444;2023-01-24T06:55:51;16.15;;;11.88;;
38083;SDS011;23894;51.466;7.444;2023-01-24T06:57:58;14.90;;;11.48;;
38083;SDS011;23894;51.466;7.444;2023-01-24T07:00:00;14.95;;;11.45;;
38083;SDS011;23894;51.466;7.444;2023-01-24T07:02:02;14.75;;;11.35;;
38083;SDS011;23894;51.466;7.444;2023-01-24T07:04:03;14.02;;;10.98;;
38083;SDS011;23894;51.466;7.444;2023-01-24T07:06:04;15.52;;;12.00;;
38083;SDS011;23894;51.466;7.444;2023-01-24T07:10:07;15.95;;;11.82;;
38083;SDS011;23894;51.466;7.444;2023-01-24T07:12:08;13.70;;;10.57;;
38083;SDS011;23894;51.466;7.444;2023-01-24T07:14:09;15.10;;;11.68;;
38083;SDS011;23894;51.466;7.444;2023-01-24T07:16:10;14.48;;;11.48;;
38083;SDS011;23894;51.466;7.444;2023-01-24T07:20:12;14.63;;;11.18;;
38083;SDS011;23894;51.466;7.444;2023-01-24T07:22:13;14.40;;;11.43;;
38083;SDS011;23894;51.466;7.444;2023-01-24T07:26:15;12.73;;;9.88;;
38083;SDS011;23894;51.466;7.444;2023-01-24T07:30:18;14.15;;;10.75;;
38083;SDS011;23894;51.466;7.444;2023-01-24T07:34:20;12.52;;;9.35;;
38083;SDS011;23894;51.466;7.444;2023-01-24T07:36:21;12.57;;;10.13;;
38083;SDS011;23894;51.466;7.444;2023-01-24T07:38:22;13.35;;;10.25;;
38083;SDS011;23894;51.466;7.444;2023-01-24T07:40:23;13.57;;;10.27;;
38083;SDS011;23894;51.466;7.444;2023-01-24T07:42:24;13.38;;;10.55;;
38083;SDS011;23894;51.466;7.444;2023-01-24T07:44:25;14.35;;;10.23;;
38083;SDS011;23894;51.466;7.444;2023-01-24T07:46:26;13.68;;;10.10;;
38083;SDS011;23894;51.466;7.444;2023-01-24T07:48:27;13.90;;;9.55;;
38083;SDS011;23894;51.466;7.444;2023-01-24T07:50:28;13.98;;;9.80;;
38083;SDS011;23894;51.466;7.444;2023-01-24T07:52:32;15.18;;;10.27;;
38083;SDS011;23894;51.466;7.444;2023-01-24T07:54:33;13.43;;;10.38;;
38083;SDS011;23894;51.466;7.444;2023-01-24T07:58:35;11.77;;;9.45;;
38083;SDS011;23894;51.466;7.444;2023-01-24T08:00:36;13.15;;;9.00;;
38083;SDS011;23894;51.466;7.444;2023-01-24T08:02:37;12.25;;;9.35;;
38083;SDS011;23894;51.466;7.444;2023-01-24T08:04:38;11.77;;;8.93;;
38083;SDS011;23894;51.466;7.444;2023-01-24T08:09:00;12.30;;;9.40;;
38083;SDS011;23894;51.466;7.444;2023-01-24T08:11:01;13.80;;;9.90;;
38083;SDS011;23894;51.466;7.444;2023-01-24T08:13:02;12.95;;;9.85;;
38083;SDS011;23894;51.466;7.444;2023-01-24T08:15:03;12.75;;;10.25;;
38083;SDS011;23894;51.466;7.444;2023-01-24T08:17:06;13.75;;;11.50;;
38083;SDS011;23894;51.466;7.444;2023-01-24T08:19:07;12.90;;;9.73;;
38083;SDS011;23894;51.466;7.444;2023-01-24T08:21:08;16.00;;;10.45;;
38083;SDS011;23894;51.466;7.444;2023-01-24T08:25:10;12.93;;;10.35;;
38083;SDS011;23894;51.466;7.444;2023-01-24T08:27:11;13.80;;;11.00;;
38083;SDS011;23894;51.466;7.444;2023-01-24T08:29:12;15.18;;;10.65;;
38083;SDS011;23894;51.466;7.444;2023-01-24T08:31:13;14.13;;;10.77;;
38083;SDS011;23894;51.466;7.444;2023-01-24T08:33:14;13.48;;;11.27;;
38083;SDS011;23894;51.466;7.444;2023-01-24T08:35:19;14.50;;;11.10;;
38083;SDS011;23894;51.466;7.444;2023-01-24T08:37:20;13.00;;;10.75;;
38083;SDS011;23894;51.466;7.444;2023-01-24T08:39:21;13.82;;;10.52;;
38083;SDS011;23894;51.466;7.444;2023-01-24T08:41:22;13.95;;;11.23;;
38083;SDS011;23894;51.466;7.444;2023-01-24T08:45:24;12.73;;;9.80;;
38083;SDS011;23894;51.466;7.444;2023-01-24T08:47:25;12.95;;;10.32;;
38083;SDS011;23894;51.466;7.444;2023-01-24T08:49:26;12.65;;;10.30;;
38083;SDS011;23894;51.466;7.444;2023-01-24T08:51:27;13.48;;;10.45;;
38083;SDS011;23894;51.466;7.444;2023-01-24T08:53:28;12.48;;;10.43;;
38083;SDS011;23894;51.466;7.444;2023-01-24T08:55:29;13.70;;;10.02;;
38083;SDS011;23894;51.466;7.444;2023-01-24T08:57:30;13.05;;;10.50;;
38083;SDS011;23894;51.466;7.444;2023-01-24T08:59:31;13.00;;;10.43;;
38083;SDS011;23894;51.466;7.444;2023-01-24T09:01:32;15.40;;;11.60;;
38083;SDS011;23894;51.466;7.444;2023-01-24T09:05:34;14.63;;;10.82;;
38083;SDS011;23894;51.466;7.444;2023-01-24T09:07:36;13.65;;;10.45;;
38083;SDS011;23894;51.466;7.444;2023-01-24T09:09:39;13.45;;;11.05;;
38083;SDS011;23894;51.466;7.444;2023-01-24T09:11:40;14.60;;;11.73;;
38083;SDS011;23894;51.466;7.444;2023-01-24T09:13:41;13.93;;;11.18;;
38083;SDS011;23894;51.466;7.444;2023-01-24T09:15:44;14.30;;;11.27;;
38083;SDS011;23894;51.466;7.444;2023-01-24T09:17:45;14.10;;;11.57;;
38083;SDS011;23894;51.466;7.444;2023-01-24T09:19:46;14.32;;;11.27;;
38083;SDS011;23894;51.466;7.444;2023-01-24T09:21:47;13.73;;;11.05;;
38083;SDS011;23894;51.466;7.444;2023-01-24T09:23:55;11.93;;;9.95;;
38083;SDS011;23894;51.466;7.444;2023-01-24T09:27:58;14.65;;;11.23;;
38083;SDS011;23894;51.466;7.444;2023-01-24T09:29:59;13.55;;;10.88;;
38083;SDS011;23894;51.466;7.444;2023-01-24T09:32:01;15.13;;;11.27;;
38083;SDS011;23894;51.466;7.444;2023-01-24T09:34:02;14.35;;;11.75;;
38083;SDS011;23894;51.466;7.444;2023-01-24T09:36:03;13.95;;;11.38;;
38083;SDS011;23894;51.466;7.444;2023-01-24T09:38:04;14.02;;;11.70;;
38083;SDS011;23894;51.466;7.444;2023-01-24T09:40:08;13.98;;;11.45;;
38083;SDS011;23894;51.466;7.444;2023-01-24T09:46:50;13.30;;;11.23;;
38083;SDS011;23894;51.466;7.444;2023-01-24T09:51:17;14.55;;;11.43;;
38083;SDS011;23894;51.466;7.444;2023-01-24T09:53:26;13.52;;;11.65;;
38083;SDS011;23894;51.466;7.444;2023-01-24T09:55:40;13.30;;;11.90;;
38083;SDS011;23894;51.466;7.444;2023-01-24T10:00:10;14.77;;;11.38;;
38083;SDS011;23894;51.466;7.444;2023-01-24T10:02:17;14.50;;;11.52;;
38083;SDS011;23894;51.466;7.444;2023-01-24T10:04:20;15.27;;;12.82;;
38083;SDS011;23894;51.466;7.444;2023-01-24T10:06:22;14.77;;;12.55;;
38083;SDS011;23894;51.466;7.444;2023-01-24T10:08:31;14.20;;;12.65;;
38083;SDS011;23894;51.466;7.444;2023-01-24T10:23:21;14.25;;;12.35;;
38083;SDS011;23894;51.466;7.444;2023-01-24T10:25:27;13.52;;;11.73;;
38083;SDS011;23894;51.466;7.444;2023-01-24T10:27:35;14.23;;;11.75;;
38083;SDS011;23894;51.466;7.444;2023-01-24T10:29:38;14.63;;;12.13;;
38083;SDS011;23894;51.466;7.444;2023-01-24T10:31:40;14.27;;;11.77;;
38083;SDS011;23894;51.466;7.444;2023-01-24T10:33:46;14.13;;;11.75;;
38083;SDS011;23894;51.466;7.444;2023-01-24T10:36:03;15.05;;;11.60;;
38083;SDS011;23894;51.466;7.444;2023-01-24T10:38:05;14.45;;;11.60;;
38083;SDS011;23894;51.466;7.444;2023-01-24T10:40:14;14.27;;;11.68;;
38083;SDS011;23894;51.466;7.444;2023-01-24T10:42:25;13.25;;;11.50;;
38083;SDS011;23894;51.466;7.444;2023-01-24T10:44:29;15.23;;;12.27;;
38083;SDS011;23894;51.466;7.444;2023-01-24T10:48:49;13.73;;;12.15;;
38083;SDS011;23894;51.466;7.444;2023-01-24T10:50:50;14.93;;;11.85;;
38083;SDS011;23894;51.466;7.444;2023-01-24T10:52:51;15.00;;;12.27;;
38083;SDS011;23894;51.466;7.444;2023-01-24T10:54:56;14.02;;;12.10;;
38083;SDS011;23894;51.466;7.444;2023-01-24T10:56:57;13.80;;;11.43;;
38083;SDS011;23894;51.466;7.444;2023-01-24T10:59:00;13.50;;;11.65;;
38083;SDS011;23894;51.466;7.444;2023-01-24T11:01:17;13.98;;;12.00;;
38083;SDS011;23894;51.466;7.444;2023-01-24T11:03:23;13.85;;;11.43;;
38083;SDS011;23894;51.466;7.444;2023-01-24T11:05:25;14.05;;;11.82;;
38083;SDS011;23894;51.466;7.444;2023-01-24T11:07:31;14.45;;;11.75;;
38083;SDS011;23894;51.466;7.444;2023-01-24T11:09:32;14.50;;;11.57;;
38083;SDS011;23894;51.466;7.444;2023-01-24T11:11:34;12.27;;;10.95;;
38083;SDS011;23894;51.466;7.444;2023-01-24T11:13:39;13.57;;;11.65;;
38083;SDS011;23894;51.466;7.444;2023-01-24T11:15:46;14.02;;;11.95;;
38083;SDS011;23894;51.466;7.444;2023-01-24T11:17:51;13.25;;;11.60;;
38083;SDS011;23894;51.466;7.444;2023-01-24T11:19:57;12.77;;;11.43;;
38083;SDS011;23894;51.466;7.444;2023-01-24T11:21:59;13.55;;;11.35;;
38083;SDS011;23894;51.466;7.444;2023-01-24T11:26:26;13.05;;;10.88;;
38083;SDS011;23894;51.466;7.444;2023-01-24T11:28:31;12.27;;;10.73;;
38083;SDS011;23894;51.466;7.444;2023-01-24T11:30:32;11.63;;;10.40;;
38083;SDS011;23894;51.466;7.444;2023-01-24T11:35:18;12.00;;;9.85;;
38083;SDS011;23894;51.466;7.444;2023-01-24T11:41:55;11.80;;;9.90;;
38083;SDS011;23894;51.466;7.444;2023-01-24T11:50:33;12.95;;;10.15;;
38083;SDS011;23894;51.466;7.444;2023-01-24T11:54:56;14.05;;;9.65;;
38083;SDS011;23894;51.466;7.444;2023-01-24T11:57:00;13.20;;;10.30;;
38083;SDS011;23894;51.466;7.444;2023-01-24T12:03:34;11.45;;;9.15;;
38083;SDS011;23894;51.466;7.444;2023-01-24T12:05:59;12.60;;;10.15;;
38083;SDS011;23894;51.466;7.444;2023-01-24T12:08:14;11.93;;;10.25;;
38083;SDS011;23894;51.466;7.444;2023-01-24T12:21:30;13.00;;;10.10;;
38083;SDS011;23894;51.466;7.444;2023-01-24T12:24:18;12.60;;;9.60;;
38083;SDS011;23894;51.466;7.444;2023-01-24T12:25:52;11.57;;;9.52;;
38083;SDS011;23894;51.466;7.444;2023-01-24T12:27:54;11.27;;;9.55;;
38083;SDS011;23894;51.466;7.444;2023-01-24T12:29:57;12.35;;;9.32;;
38083;SDS011;23894;51.466;7.444;2023-01-24T12:34:05;11.35;;;9.60;;
38083;SDS011;23894;51.466;7.444;2023-01-24T12:38:22;11.65;;;9.38;;
38083;SDS011;23894;51.466;7.444;2023-01-24T12:42:38;12.90;;;9.75;;
38083;SDS011;23894;51.466;7.444;2023-01-24T12:44:52;11.65;;;9.32;;
38083;SDS011;23894;51.466;7.444;2023-01-24T12:47:04;12.20;;;10.02;;
38083;SDS011;23894;51.466;7.444;2023-01-24T12:51:30;10.75;;;8.75;;
38083;SDS011;23894;51.466;7.444;2023-01-24T12:53:48;11.52;;;9.15;;
38083;SDS011;23894;51.466;7.444;2023-01-24T12:55:59;11.30;;;9.13;;
38083;SDS011;23894;51.466;7.444;2023-01-24T13:00:18;11.10;;;8.60;;
38083;SDS011;23894;51.466;7.444;2023-01-24T13:02:31;11.20;;;9.18;;
38083;SDS011;23894;51.466;7.444;2023-01-24T13:10:59;11.38;;;9.15;;
38083;SDS011;23894;51.466;7.444;2023-01-24T13:13:02;11.25;;;8.90;;
38083;SDS011;23894;51.466;7.444;2023-01-24T13:15:05;11.68;;;9.02;;
38083;SDS011;23894;51.466;7.444;2023-01-24T13:19:38;12.82;;;9.73;;
38083;SDS011;23894;51.466;7.444;2023-01-24T13:28:29;10.73;;;8.90;;
38083;SDS011;23894;51.466;7.444;2023-01-24T13:30:43;10.70;;;9.15;;
38083;SDS011;23894;51.466;7.444;2023-01-24T13:32:47;12.70;;;8.63;;
38083;SDS011;23894;51.466;7.444;2023-01-24T13:34:52;12.15;;;8.32;;
38083;SDS011;23894;51.466;7.444;2023-01-24T13:36:54;11.32;;;10.02;;
38083;SDS011;23894;51.466;7.444;2023-01-24T13:38:55;11.52;;;9.32;;
38083;SDS011;23894;51.466;7.444;2023-01-24T13:42:58;11.77;;;8.98;;
38083;SDS011;23894;51.466;7.444;2023-01-24T13:44:59;10.63;;;8.80;;
38083;SDS011;23894;51.466;7.444;2023-01-24T13:47:22;11.98;;;8.32;;
38083;SDS011;23894;51.466;7.444;2023-01-24T13:51:34;11.70;;;9.40;;
38083;SDS011;23894;51.466;7.444;2023-01-24T13:54:04;10.27;;;8.63;;
38083;SDS011;23894;51.466;7.444;2023-01-24T13:56:06;10.32;;;8.48;;
38083;SDS011;23894;51.466;7.444;2023-01-24T14:02:25;10.95;;;8.38;;
38083;SDS011;23894;51.466;7.444;2023-01-24T14:04:39;11.05;;;8.15;;
38083;SDS011;23894;51.466;7.444;2023-01-24T14:06:43;11.35;;;9.13;;
38083;SDS011;23894;51.466;7.444;2023-01-24T14:08:52;11.35;;;8.57;;
38083;SDS011;23894;51.466;7.444;2023-01-24T14:15:45;10.55;;;8.90;;
38083;SDS011;23894;51.466;7.444;2023-01-24T14:17:47;10.88;;;8.90;;
38083;SDS011;23894;51.466;7.444;2023-01-24T14:19:48;10.30;;;8.63;;
38083;SDS011;23894;51.466;7.444;2023-01-24T14:23:55;10.50;;;8.95;;
38083;SDS011;23894;51.466;7.444;2023-01-24T14:25:57;10.30;;;8.68;;
38083;SDS011;23894;51.466;7.444;2023-01-24T14:28:17;10.95;;;9.02;;
38083;SDS011;23894;51.466;7.444;2023-01-24T14:32:21;11.25;;;9.15;;
38083;SDS011;23894;51.466;7.444;2023-01-24T14:34:35;10.70;;;8.38;;
38083;SDS011;23894;51.466;7.444;2023-01-24T14:36:38;14.15;;;9.32;;
38083;SDS011;23894;51.466;7.444;2023-01-24T14:38:41;11.27;;;9.60;;
38083;SDS011;23894;51.466;7.444;2023-01-24T14:40:42;10.27;;;8.88;;